createdAt,value
2018-08-17T00:02:15.271Z,88.50
2018-08-17T00:04:43.457Z,88.40
2018-08-17T00:07:11.997Z,88.10
2018-08-17T00:09:40.535Z,88.40
2018-08-17T00:12:09.804Z,88.40
2018-08-17T00:14:39.842Z,88.70
2018-08-17T00:17:08.147Z,88.60
2018-08-17T00:19:36.395Z,89.00
2018-08-17T00:22:04.631Z,89.20
2018-08-17T00:24:32.822Z,89.70
2018-08-17T00:27:01.028Z,90.10
2018-08-17T00:29:29.355Z,90.10
2018-08-17T00:31:59.439Z,90.20
2018-08-17T00:34:27.687Z,89.30
2018-08-17T00:36:55.915Z,88.00
2018-08-17T00:39:24.105Z,87.90
2018-08-17T00:41:52.379Z,88.70
2018-08-17T00:44:22.926Z,89.00
2018-08-17T00:46:51.152Z,89.00
2018-08-17T00:49:19.350Z,88.90
2018-08-17T00:51:47.627Z,89.00
2018-08-17T00:54:15.851Z,89.50
2018-08-17T00:56:49.535Z,90.10
2018-08-17T00:59:17.826Z,90.40
2018-08-17T01:01:46.026Z,90.70
2018-08-17T01:04:14.248Z,90.90
2018-08-17T01:06:42.423Z,91.10
2018-08-17T01:09:10.934Z,91.30
2018-08-17T01:11:39.163Z,91.10
2018-08-17T01:14:07.380Z,91.10
2018-08-17T01:16:36.405Z,91.30
2018-08-17T01:19:04.617Z,91.20
2018-08-17T01:21:32.802Z,91.20
2018-08-17T01:24:01.232Z,91.30
2018-08-17T01:26:29.441Z,91.30
2018-08-17T01:28:57.700Z,91.20
2018-08-17T01:31:25.893Z,91.20
2018-08-17T01:33:54.133Z,91.30
2018-08-17T01:36:22.314Z,91.20
2018-08-17T01:38:50.564Z,91.20
2018-08-17T01:41:18.870Z,91.30
2018-08-17T01:43:47.090Z,91.60
2018-08-17T01:46:15.324Z,91.30
2018-08-17T01:48:43.632Z,91.40
2018-08-17T01:51:11.831Z,91.60
2018-08-17T01:53:40.083Z,91.50
2018-08-17T01:56:08.291Z,91.50
2018-08-17T01:58:36.530Z,91.50
2018-08-17T02:01:04.736Z,91.70
2018-08-17T02:03:32.970Z,91.90
2018-08-17T02:06:01.260Z,92.00
2018-08-17T02:08:29.482Z,92.30
2018-08-17T02:10:57.714Z,91.90
2018-08-17T02:13:26.007Z,92.00
2018-08-17T02:15:54.414Z,92.30
2018-08-17T02:18:22.606Z,92.50
2018-08-17T02:20:50.867Z,92.70
2018-08-17T02:23:19.045Z,92.70
2018-08-17T02:25:47.247Z,92.80
2018-08-17T02:28:15.443Z,92.70
2018-08-17T02:30:43.648Z,92.40
2018-08-17T02:33:11.870Z,92.50
2018-08-17T02:35:40.071Z,92.60
2018-08-17T02:38:08.365Z,92.70
2018-08-17T02:40:36.559Z,92.50
2018-08-17T02:43:04.826Z,92.60
2018-08-17T02:45:33.179Z,92.80
2018-08-17T02:48:01.411Z,92.90
2018-08-17T02:50:29.588Z,92.90
2018-08-17T02:52:57.795Z,93.00
2018-08-17T02:55:26.016Z,93.00
2018-08-17T02:57:54.246Z,93.00
2018-08-17T03:00:22.487Z,93.10
2018-08-17T03:02:50.688Z,93.00
2018-08-17T03:05:18.907Z,92.90
2018-08-17T03:07:47.134Z,93.20
2018-08-17T03:10:15.383Z,93.00
2018-08-17T03:12:43.598Z,92.90
2018-08-17T03:15:11.803Z,93.10
2018-08-17T03:20:14.626Z,93.30
2018-08-17T03:22:42.935Z,93.40
2018-08-17T03:25:11.159Z,93.50
2018-08-17T03:27:39.384Z,93.60
2018-08-17T03:30:07.572Z,93.70
2018-08-17T03:32:35.815Z,93.70
2018-08-17T03:35:04.492Z,93.60
2018-08-17T03:37:33.123Z,93.30
2018-08-17T03:40:01.390Z,93.50
2018-08-17T03:42:29.584Z,93.40
2018-08-17T03:44:57.803Z,93.50
2018-08-17T03:47:26.067Z,93.60
2018-08-17T03:49:54.257Z,93.60
2018-08-17T03:52:22.518Z,93.70
2018-08-17T03:54:50.720Z,93.80
2018-08-17T03:57:19.095Z,93.90
2018-08-17T03:59:47.380Z,93.90
2018-08-17T04:02:15.575Z,94.10
2018-08-17T04:04:43.798Z,93.90
2018-08-17T04:07:12.019Z,94.30
2018-08-17T04:09:40.219Z,93.90
2018-08-17T04:12:08.471Z,93.90
2018-08-17T04:14:36.687Z,93.80
2018-08-17T04:17:04.931Z,93.80
2018-08-17T04:19:33.105Z,93.50
2018-08-17T04:22:01.317Z,93.20
2018-08-17T04:24:29.503Z,92.90
2018-08-17T04:26:57.741Z,92.40
2018-08-17T04:29:25.934Z,92.10
2018-08-17T04:31:54.131Z,91.70
2018-08-17T04:34:22.427Z,91.60
2018-08-17T04:36:50.629Z,91.30
2018-08-17T04:39:18.812Z,91.10
2018-08-17T04:41:47.012Z,90.80
2018-08-17T04:44:15.348Z,90.40
2018-08-17T04:46:43.578Z,90.00
2018-08-17T04:49:11.802Z,89.40
2018-08-17T04:51:40.022Z,88.70
2018-08-17T04:54:08.242Z,88.20
2018-08-17T04:56:36.515Z,88.20
2018-08-17T04:59:04.748Z,87.90
2018-08-17T05:01:32.958Z,87.70
2018-08-17T05:04:01.184Z,88.20
2018-08-17T05:06:29.386Z,88.70
2018-08-17T05:08:57.619Z,88.60
2018-08-17T05:11:25.851Z,88.80
2018-08-17T05:13:54.065Z,89.60
2018-08-17T05:16:22.267Z,90.10
2018-08-17T05:18:50.534Z,90.00
2018-08-17T05:21:18.720Z,89.90
2018-08-17T05:23:46.927Z,90.10
2018-08-17T05:26:15.143Z,90.30
2018-08-17T05:28:43.384Z,90.70
2018-08-17T05:31:11.627Z,90.80
2018-08-17T05:33:39.866Z,90.70
2018-08-17T05:36:08.106Z,90.70
2018-08-17T05:38:36.326Z,90.60
2018-08-17T05:41:04.543Z,90.40
2018-08-17T05:43:32.769Z,90.40
2018-08-17T05:46:00.940Z,90.20
2018-08-17T05:48:29.146Z,90.00
2018-08-17T05:50:57.366Z,90.00
2018-08-17T05:53:25.549Z,90.10
2018-08-17T05:55:53.777Z,90.20
2018-08-17T05:58:21.989Z,90.10
2018-08-17T06:00:50.204Z,90.40
2018-08-17T06:03:18.467Z,90.70
2018-08-17T06:05:46.686Z,90.90
2018-08-17T06:08:14.925Z,91.00
2018-08-17T06:10:43.124Z,91.20
2018-08-17T06:13:11.394Z,91.20
2018-08-17T06:15:39.707Z,91.40
2018-08-17T06:18:08.067Z,91.70
2018-08-17T06:20:36.319Z,92.10
2018-08-17T06:23:04.626Z,91.80
2018-08-17T06:25:32.830Z,92.10
2018-08-17T06:28:01.063Z,92.30
2018-08-17T06:30:29.283Z,92.10
2018-08-17T06:32:57.519Z,92.00
2018-08-17T06:35:25.724Z,91.80
2018-08-17T06:37:53.996Z,91.30
2018-08-17T06:40:22.205Z,90.90
2018-08-17T06:42:50.443Z,90.50
2018-08-17T06:45:18.622Z,90.40
2018-08-17T06:47:46.858Z,90.00
2018-08-17T06:50:15.087Z,89.90
2018-08-17T06:52:43.467Z,90.20
2018-08-17T06:55:12.448Z,90.20
2018-08-17T06:57:40.886Z,90.20
2018-08-17T07:00:13.783Z,89.10
2018-08-17T07:02:43.042Z,89.40
2018-08-17T07:05:11.191Z,88.10
2018-08-17T07:07:39.735Z,88.30
2018-08-17T07:10:09.467Z,88.00
2018-08-17T07:12:38.380Z,85.50
2018-08-17T07:15:06.815Z,85.10
2018-08-17T07:17:35.335Z,85.70
2018-08-17T07:20:05.029Z,85.10
2018-08-17T07:22:36.081Z,85.20
2018-08-17T07:25:04.527Z,85.40
2018-08-17T07:27:32.810Z,85.00
2018-08-17T07:30:01.185Z,85.00
2018-08-17T07:32:30.047Z,84.00
2018-08-17T07:34:58.237Z,83.20
2018-08-17T07:37:26.508Z,83.10
2018-08-17T07:39:54.760Z,82.10
2018-08-17T07:42:23.003Z,81.80
2018-08-17T07:44:51.181Z,81.90
2018-08-17T07:47:19.641Z,81.60
2018-08-17T07:49:48.443Z,81.00
2018-08-17T07:52:16.666Z,81.10
2018-08-17T07:54:44.867Z,81.60
2018-08-17T07:57:13.044Z,81.90
2018-08-17T07:59:41.307Z,82.10
2018-08-17T08:02:10.292Z,82.20
2018-08-17T08:04:38.560Z,82.70
2018-08-17T08:07:07.915Z,83.20
2018-08-17T08:09:36.327Z,82.90
2018-08-17T08:12:05.051Z,82.40
2018-08-17T08:14:33.247Z,82.60
2018-08-17T08:17:01.423Z,83.30
2018-08-17T08:19:29.670Z,84.10
2018-08-17T08:21:57.883Z,85.20
2018-08-17T08:24:26.075Z,86.10
2018-08-17T08:26:54.338Z,85.60
2018-08-17T08:29:22.512Z,86.20
2018-08-17T08:31:50.706Z,86.60
2018-08-17T08:34:18.933Z,87.10
2018-08-17T08:36:47.131Z,87.40
2018-08-17T08:39:15.395Z,88.50
2018-08-17T08:41:43.608Z,89.40
2018-08-17T08:44:11.802Z,90.20
2018-08-17T08:46:40.004Z,90.30
2018-08-17T08:49:08.235Z,90.10
2018-08-17T08:51:36.435Z,90.10
2018-08-17T08:54:05.363Z,90.00
2018-08-17T08:56:33.715Z,89.50
2018-08-17T08:59:01.936Z,89.40
2018-08-17T09:01:30.194Z,90.00
2018-08-17T09:03:58.369Z,89.90
2018-08-17T09:06:26.565Z,90.40
2018-08-17T09:08:54.821Z,90.90
2018-08-17T09:11:23.054Z,91.20
2018-08-17T09:13:51.271Z,91.60
2018-08-17T09:16:19.592Z,92.30
2018-08-17T09:18:47.816Z,92.60
2018-08-17T09:21:16.019Z,93.00
2018-08-17T09:23:44.219Z,93.30
2018-08-17T09:26:12.446Z,93.40
2018-08-17T09:28:40.702Z,93.50
2018-08-17T09:31:09.028Z,93.60
2018-08-17T09:33:37.607Z,93.90
2018-08-17T09:36:05.806Z,94.00
2018-08-17T09:38:34.069Z,93.90
2018-08-17T09:41:02.396Z,93.60
2018-08-17T09:43:30.584Z,93.60
2018-08-17T09:45:58.831Z,93.40
2018-08-17T09:48:27.043Z,93.10
2018-08-17T09:51:07.944Z,92.90
2018-08-17T09:53:36.162Z,92.70
2018-08-17T09:56:04.362Z,92.80
2018-08-17T09:58:32.563Z,93.20
2018-08-17T10:01:06.243Z,93.60
2018-08-17T10:03:40.093Z,93.40
2018-08-17T10:06:13.600Z,92.80
2018-08-17T10:11:34.614Z,91.50
2018-08-17T10:14:02.815Z,91.00
2018-08-17T10:16:30.986Z,90.70
2018-08-17T10:18:59.255Z,90.60
2018-08-17T10:21:27.764Z,90.60
2018-08-17T10:23:55.653Z,90.60
2018-08-17T10:26:23.910Z,89.30
2018-08-17T10:28:52.083Z,90.20
2018-08-17T10:31:20.363Z,88.40
2018-08-17T10:33:48.794Z,87.40
2018-08-17T10:39:10.091Z,88.50
2018-08-17T10:41:39.051Z,89.90
2018-08-17T10:44:08.489Z,89.60
2018-08-17T10:46:37.841Z,88.50
2018-08-17T10:49:06.876Z,89.60
2018-08-17T10:51:35.156Z,89.30
2018-08-17T10:54:03.946Z,90.10
2018-08-17T10:56:32.154Z,85.40
2018-08-17T10:59:00.848Z,82.70
2018-08-17T11:01:29.195Z,80.10
2018-08-17T11:03:57.382Z,77.90
2018-08-17T11:06:25.590Z,78.40
2018-08-17T11:08:53.862Z,78.40
2018-08-17T11:11:22.111Z,78.60
2018-08-17T11:13:50.392Z,79.60
2018-08-17T11:16:18.573Z,79.70
2018-08-17T11:18:46.755Z,78.40
2018-08-17T11:21:15.034Z,77.20
2018-08-17T11:23:43.397Z,76.10
2018-08-17T11:26:12.921Z,74.30
2018-08-17T11:28:41.134Z,74.70
2018-08-17T11:31:09.423Z,73.00
2018-08-17T11:33:37.730Z,74.30
2018-08-17T11:36:06.614Z,74.70
2018-08-17T11:38:35.159Z,74.40
2018-08-17T11:41:03.335Z,75.90
2018-08-17T11:43:31.510Z,74.00
2018-08-17T11:45:59.718Z,73.50
2018-08-17T11:48:33.495Z,73.10
2018-08-17T11:51:01.755Z,73.00
2018-08-17T11:53:30.264Z,71.20
2018-08-17T11:55:59.071Z,70.90
2018-08-17T11:58:27.319Z,71.50
2018-08-17T12:00:55.577Z,72.00
2018-08-17T12:03:24.759Z,72.30
2018-08-17T12:05:53.140Z,71.80
2018-08-17T12:08:21.974Z,73.10
2018-08-17T12:10:56.440Z,72.50
2018-08-17T12:13:24.727Z,74.00
2018-08-17T12:15:57.214Z,73.90
2018-08-17T12:18:26.299Z,74.20
2018-08-17T12:20:55.207Z,73.80
2018-08-17T12:23:24.355Z,74.70
2018-08-17T12:25:57.734Z,74.30
2018-08-17T12:28:27.266Z,74.30
2018-08-17T12:30:56.186Z,75.00
2018-08-17T12:33:24.410Z,75.50
2018-08-17T12:35:52.715Z,76.20
2018-08-17T12:38:20.988Z,76.00
2018-08-17T12:40:51.663Z,76.50
2018-08-17T12:43:24.103Z,76.20
2018-08-17T12:45:52.387Z,76.20
2018-08-17T12:48:20.822Z,76.70
2018-08-17T12:50:49.098Z,76.00
2018-08-17T12:53:17.969Z,74.00
2018-08-17T12:55:47.004Z,72.40
2018-08-17T12:58:15.451Z,72.10
2018-08-17T13:00:43.845Z,73.20
2018-08-17T13:03:12.205Z,72.00
2018-08-17T13:05:40.435Z,72.30
2018-08-17T13:08:08.977Z,74.40
2018-08-17T13:10:37.626Z,74.10
2018-08-17T13:13:05.839Z,74.00
2018-08-17T13:15:35.411Z,74.40
2018-08-17T13:18:17.777Z,74.30
2018-08-17T13:20:46.092Z,74.60
2018-08-17T13:23:14.464Z,73.80
2018-08-17T13:25:43.045Z,73.70
2018-08-17T13:28:12.396Z,73.60
2018-08-17T13:30:40.626Z,73.40
2018-08-17T13:33:09.018Z,72.00
2018-08-17T13:35:37.194Z,72.30
2018-08-17T13:38:06.001Z,71.70
2018-08-17T13:40:34.474Z,71.90
2018-08-17T13:43:02.727Z,71.80
2018-08-17T13:45:31.813Z,70.50
2018-08-17T13:48:00.435Z,70.20
2018-08-17T13:50:28.771Z,69.70
2018-08-17T13:52:57.043Z,69.00
2018-08-17T13:55:25.251Z,69.70
2018-08-17T13:57:53.822Z,70.30
2018-08-17T14:00:22.071Z,70.60
2018-08-17T14:02:50.373Z,72.30
2018-08-17T14:05:18.600Z,71.80
2018-08-17T14:07:47.535Z,70.20
2018-08-17T14:10:16.443Z,68.90
2018-08-17T14:12:44.798Z,69.60
2018-08-17T14:15:13.111Z,68.40
2018-08-17T14:17:41.430Z,67.20
2018-08-17T14:20:14.866Z,66.40
2018-08-17T14:22:43.272Z,66.10
2018-08-17T14:25:11.874Z,64.20
2018-08-17T14:27:40.164Z,62.70
2018-08-17T14:30:13.206Z,62.40
2018-08-17T14:32:41.818Z,60.30
2018-08-17T14:35:10.329Z,59.30
2018-08-17T14:37:38.610Z,57.30
2018-08-17T14:40:07.803Z,57.80
2018-08-17T14:42:36.040Z,59.00
2018-08-17T14:45:05.660Z,59.40
2018-08-17T14:47:34.399Z,59.40
2018-08-17T14:50:03.701Z,59.10
2018-08-17T14:52:33.130Z,58.90
2018-08-17T14:55:01.541Z,58.60
2018-08-17T14:57:29.763Z,58.70
2018-08-17T14:59:57.965Z,58.90
2018-08-17T15:02:26.143Z,58.60
2018-08-17T15:04:54.526Z,59.10
2018-08-17T15:07:22.854Z,58.90
2018-08-17T15:09:51.147Z,58.40
2018-08-17T15:12:19.383Z,58.30
2018-08-17T15:14:47.626Z,57.30
2018-08-17T15:17:15.827Z,57.00
2018-08-17T15:19:44.242Z,56.60
2018-08-17T15:22:13.200Z,56.40
2018-08-17T15:24:41.679Z,56.60
2018-08-17T15:27:10.115Z,56.90
2018-08-17T15:29:38.452Z,55.90
2018-08-17T15:32:06.672Z,58.00
2018-08-17T15:34:34.899Z,58.10
2018-08-17T15:37:03.288Z,58.50
2018-08-17T15:39:31.522Z,57.50
2018-08-17T15:41:59.869Z,56.30
2018-08-17T15:44:28.166Z,56.60
2018-08-17T15:46:57.539Z,55.80
2018-08-17T15:49:30.958Z,55.80
2018-08-17T15:51:59.954Z,55.90
2018-08-17T15:54:28.281Z,55.00
2018-08-17T15:56:56.571Z,54.70
2018-08-17T15:59:24.824Z,55.10
2018-08-17T16:01:53.268Z,54.90
2018-08-17T16:04:21.725Z,55.10
2018-08-17T16:06:50.118Z,56.40
2018-08-17T16:09:18.727Z,56.50
2018-08-17T16:11:46.991Z,56.00
2018-08-17T16:14:15.179Z,55.40
2018-08-17T16:16:43.467Z,54.80
2018-08-17T16:19:11.635Z,54.10
2018-08-17T16:21:39.811Z,54.60
2018-08-17T16:24:08.027Z,54.80
2018-08-17T16:26:36.202Z,55.00
2018-08-17T16:29:04.977Z,54.40
2018-08-17T16:31:37.338Z,55.50
2018-08-17T16:34:05.802Z,54.40
2018-08-17T16:36:36.126Z,54.60
2018-08-17T16:39:07.972Z,54.00
2018-08-17T16:41:36.180Z,54.20
2018-08-17T16:44:04.379Z,53.60
2018-08-17T16:46:32.742Z,53.60
2018-08-17T16:49:01.090Z,53.40
2018-08-17T16:51:29.153Z,53.30
2018-08-17T16:53:57.355Z,52.90
2018-08-17T16:56:25.554Z,52.90
2018-08-17T16:58:53.856Z,53.60
2018-08-17T17:01:22.084Z,53.10
2018-08-17T17:03:50.307Z,53.70
2018-08-17T17:06:18.529Z,54.10
2018-08-17T17:08:46.768Z,54.00
2018-08-17T17:11:15.005Z,54.20
2018-08-17T17:13:44.263Z,54.20
2018-08-17T17:16:12.607Z,54.10
2018-08-17T17:18:40.859Z,54.30
2018-08-17T17:21:09.230Z,54.50
2018-08-17T17:23:52.126Z,55.00
2018-08-17T17:26:20.430Z,55.60
2018-08-17T17:28:49.219Z,55.20
2018-08-17T17:31:17.803Z,55.20
2018-08-17T17:33:46.030Z,56.40
2018-08-17T17:36:14.242Z,57.20
2018-08-17T17:38:42.444Z,58.00
2018-08-17T17:41:10.623Z,58.50
2018-08-17T17:43:38.858Z,59.00
2018-08-17T17:46:07.098Z,59.50
2018-08-17T17:48:35.271Z,59.80
2018-08-17T17:51:03.484Z,60.00
2018-08-17T17:53:31.696Z,60.10
2018-08-17T17:55:59.877Z,60.20
2018-08-17T17:58:28.092Z,60.30
2018-08-17T18:01:01.905Z,60.90
2018-08-17T18:03:31.336Z,61.50
2018-08-17T18:06:01.419Z,61.90
2018-08-17T18:08:30.865Z,62.00
2018-08-17T18:10:59.243Z,62.30
2018-08-17T18:13:28.134Z,62.30
2018-08-17T18:15:56.356Z,62.70
2018-08-17T18:18:24.616Z,63.10
2018-08-17T18:20:53.135Z,63.20
2018-08-17T18:23:21.496Z,63.50
2018-08-17T18:25:49.762Z,63.80
2018-08-17T18:28:17.994Z,63.90
2018-08-17T18:30:47.580Z,64.30
2018-08-17T18:33:15.735Z,64.50
2018-08-17T18:35:43.981Z,64.50
2018-08-17T18:38:13.477Z,64.60
2018-08-17T18:40:41.695Z,64.60
2018-08-17T18:43:09.918Z,65.10
2018-08-17T18:45:38.215Z,65.30
2018-08-17T18:48:06.423Z,66.20
2018-08-17T18:50:34.619Z,65.60
2018-08-17T18:53:02.876Z,66.30
2018-08-17T18:55:31.302Z,66.70
2018-08-17T18:58:00.047Z,67.00
2018-08-17T19:00:28.469Z,67.30
2018-08-17T19:02:56.731Z,67.50
2018-08-17T19:05:24.974Z,67.40
2018-08-17T19:07:53.227Z,67.50
2018-08-17T19:10:22.250Z,67.60
2018-08-17T19:12:50.448Z,67.70
2018-08-17T19:15:18.798Z,67.80
2018-08-17T19:17:47.469Z,67.80
2018-08-17T19:20:17.635Z,67.60
2018-08-17T19:22:47.045Z,67.60
2018-08-17T19:25:16.748Z,67.80
2018-08-17T19:27:46.099Z,67.50
2018-08-17T19:30:21.029Z,67.50
2018-08-17T19:32:49.777Z,67.60
2018-08-17T19:35:18.876Z,67.80
2018-08-17T19:37:47.159Z,67.90
2018-08-17T19:40:15.778Z,67.70
2018-08-17T19:42:44.302Z,68.00
2018-08-17T19:45:13.490Z,68.10
2018-08-17T19:47:42.937Z,68.00
2018-08-17T19:50:11.661Z,68.10
2018-08-17T19:52:41.535Z,69.00
2018-08-17T19:55:10.314Z,69.40
2018-08-17T19:57:39.367Z,69.70
2018-08-17T20:00:09.955Z,70.00
2018-08-17T20:02:39.748Z,70.20
2018-08-17T20:05:09.030Z,69.90
2018-08-17T20:07:37.956Z,69.70
2018-08-17T20:10:06.707Z,69.50
2018-08-17T20:12:35.490Z,69.50
2018-08-17T20:26:30.915Z,70.90
2018-08-17T20:28:58.801Z,70.60
2018-08-17T20:31:27.149Z,71.10
2018-08-17T20:34:02.033Z,71.80
2018-08-17T20:36:30.255Z,72.30
2018-08-17T20:38:58.647Z,72.70
2018-08-17T20:41:26.838Z,72.50
2018-08-17T20:43:55.073Z,73.20
2018-08-17T20:46:23.336Z,73.70
2018-08-17T20:48:51.856Z,73.90
2018-08-17T20:51:25.256Z,75.40
2018-08-17T20:53:58.027Z,75.60
2018-08-17T20:56:26.861Z,75.90
2018-08-17T20:58:55.413Z,76.60
2018-08-17T21:01:24.639Z,77.80
2018-08-17T21:03:54.113Z,77.10
2018-08-17T21:06:22.380Z,78.00
2018-08-17T21:08:51.191Z,77.90
2018-08-17T21:11:20.121Z,78.90
2018-08-17T21:13:48.954Z,78.90
2018-08-17T21:16:17.258Z,79.60
2018-08-17T21:18:45.549Z,80.10
2018-08-17T21:21:13.847Z,80.50
2018-08-17T21:23:42.120Z,80.80
2018-08-17T21:26:10.290Z,81.40
2018-08-17T21:28:38.672Z,81.80
2018-08-17T21:31:07.083Z,82.20
2018-08-17T21:33:36.271Z,82.60
2018-08-17T21:36:04.655Z,83.10
2018-08-17T21:38:32.906Z,83.40
2018-08-17T21:41:01.940Z,83.60
2018-08-17T21:43:30.155Z,83.90
2018-08-17T21:46:03.594Z,84.30
2018-08-17T21:48:32.428Z,84.80
2018-08-17T21:51:01.061Z,85.20
2018-08-17T21:53:32.579Z,86.10
2018-08-17T21:56:01.604Z,86.60
2018-08-17T21:58:30.008Z,87.10
2018-08-17T22:00:59.518Z,87.20
2018-08-17T22:03:32.410Z,87.10
2018-08-17T22:06:00.766Z,87.70
2018-08-17T22:08:29.011Z,88.10
2018-08-17T22:10:57.621Z,88.40
2018-08-17T22:13:35.074Z,88.80
2018-08-17T22:16:03.742Z,88.90
2018-08-17T22:18:32.965Z,89.40
2018-08-17T22:21:01.131Z,89.70
2018-08-17T22:23:30.215Z,89.80
2018-08-17T22:25:59.661Z,90.10
2018-08-17T22:28:27.842Z,90.20
2018-08-17T22:30:56.784Z,90.10
2018-08-17T22:33:24.985Z,90.00
2018-08-17T22:35:55.461Z,90.00
2018-08-17T22:38:24.564Z,90.10
2018-08-17T22:40:52.999Z,90.10
2018-08-17T22:43:21.274Z,90.20
2018-08-17T22:45:49.856Z,90.30
2018-08-17T22:48:18.239Z,90.30
2018-08-17T22:50:46.404Z,90.30
2018-08-17T22:53:14.977Z,90.50
2018-08-17T22:55:43.198Z,90.60
2018-08-17T22:58:11.784Z,90.60
2018-08-17T23:00:40.005Z,90.60
2018-08-17T23:03:09.922Z,90.70
2018-08-17T23:05:38.669Z,90.80
2018-08-17T23:08:06.895Z,91.00
2018-08-17T23:10:36.521Z,91.10
2018-08-17T23:13:05.922Z,91.20
2018-08-17T23:15:34.224Z,91.30
2018-08-17T23:18:06.064Z,91.50
2018-08-17T23:20:37.786Z,91.60
2018-08-17T23:23:09.151Z,91.60
2018-08-17T23:25:37.856Z,91.50
2018-08-17T23:28:08.133Z,91.50
2018-08-17T23:30:36.380Z,91.70
2018-08-17T23:33:06.150Z,91.70
2018-08-17T23:35:34.439Z,91.70
2018-08-17T23:38:02.743Z,91.70
2018-08-17T23:40:32.599Z,91.80
2018-08-17T23:43:00.887Z,92.10
2018-08-17T23:45:31.933Z,91.80
2018-08-17T23:48:03.201Z,92.00
2018-08-17T23:50:33.560Z,92.00
2018-08-17T23:53:02.693Z,92.00
2018-08-17T23:55:32.158Z,92.20
2018-08-17T23:58:01.086Z,92.10
